Time;durP1;ratioP1;P1;durP2;ratioP2;P2;SDS_P1;SDS_P2;PMS_P1;PMS_P2;Temp;Humidity;BMP_temperature;BMP_pressure;BME280_temperature;BME280_humidity;BME280_pressure;Samples;Min_cycle;Max_cycle;Signal;HPM_P1;HPM_P2
2021/09/22 00:00:07;;;;;;;1.00;0.90;;;;;;;7.89;71.44;100151.90;1685233;85;21768;-69
2021/09/22 00:02:37;;;;;;;0.72;0.62;;;;;;;7.86;71.48;100145.08;1685240;84;21527;-69
2021/09/22 00:05:05;;;;;;;1.55;0.75;;;;;;;7.88;71.57;100147.12;1686702;83;21060;-68
2021/09/22 00:07:33;;;;;;;1.65;0.90;;;;;;;7.88;71.56;100140.55;1675997;84;21010;-68
2021/09/22 00:10:01;;;;;;;1.37;1.10;;;;;;;7.87;71.57;100140.19;1689978;84;21793;-68
2021/09/22 00:12:29;;;;;;;1.80;1.15;;;;;;;7.87;71.54;100141.50;1662155;84;21040;-68
2021/09/22 00:14:57;;;;;;;1.00;0.70;;;;;;;7.85;71.50;100139.45;1690605;84;21123;-69
2021/09/22 00:17:25;;;;;;;1.17;0.80;;;;;;;7.82;71.50;100131.80;1687161;84;22234;-69
2021/09/22 00:19:51;;;;;;;1.37;0.88;;;;;;;7.78;71.57;100132.95;1688115;84;20959;-69
2021/09/22 00:22:18;;;;;;;2.92;0.90;;;;;;;7.77;71.67;100129.13;1664757;85;21786;-69
2021/09/22 00:24:46;;;;;;;3.25;1.10;;;;;;;7.77;71.70;100133.91;1687973;84;21023;-69
2021/09/22 00:27:13;;;;;;;3.02;0.82;;;;;;;7.77;71.69;100131.75;1689127;84;21366;-69
2021/09/22 00:29:42;;;;;;;3.15;1.00;;;;;;;7.78;71.72;100131.64;1671338;85;21068;-69
2021/09/22 00:32:10;;;;;;;1.75;1.05;;;;;;;7.79;71.74;100134.63;1671081;85;21043;-69
2021/09/22 00:34:37;;;;;;;1.15;0.88;;;;;;;7.77;71.76;100133.91;1670493;85;22179;-69
2021/09/22 00:37:06;;;;;;;2.67;1.27;;;;;;;7.75;71.76;100138.44;1673486;85;21443;-68
2021/09/22 00:39:36;;;;;;;1.70;1.10;;;;;;;7.71;71.85;100127.28;1673413;85;20981;-69
2021/09/22 00:42:03;;;;;;;2.40;1.10;;;;;;;7.69;71.91;100123.09;1671805;84;21060;-69
2021/09/22 00:44:30;;;;;;;1.22;1.02;;;;;;;7.69;72.01;100123.09;1688223;84;21015;-69
2021/09/22 00:46:58;;;;;;;2.10;1.10;;;;;;;7.72;72.06;100120.23;1690697;84;22630;-68
2021/09/22 00:49:26;;;;;;;3.37;1.20;;;;;;;7.72;72.05;100122.42;1688169;84;21527;-69
2021/09/22 00:51:54;;;;;;;1.22;0.90;;;;;;;7.71;72.09;100118.08;1687787;84;21047;-68
2021/09/22 00:54:21;;;;;;;3.52;1.10;;;;;;;7.71;72.12;100125.13;1667169;85;21106;-69
2021/09/22 00:56:49;;;;;;;1.52;1.10;;;;;;;7.71;72.13;100114.62;1670429;85;21025;-68
2021/09/22 00:59:15;;;;;;;1.17;0.90;;;;;;;7.74;72.15;100120.98;1672084;85;22229;-69
2021/09/22 01:01:47;;;;;;;1.20;1.00;;;;;;;7.73;72.20;100112.74;1671348;85;20969;-68
2021/09/22 01:04:10;;;;;;;1.57;1.00;;;;;;;7.72;72.19;100109.72;1685246;84;21516;-69
2021/09/22 01:06:37;;;;;;;2.45;1.00;;;;;;;7.71;72.27;100108.88;1682321;84;21080;-68
2021/09/22 01:09:03;;;;;;;1.70;1.07;;;;;;;7.71;72.25;100107.56;1685231;85;20960;-68
2021/09/22 01:11:33;;;;;;;1.80;1.00;;;;;;;7.73;72.30;100108.80;1684362;84;21830;-68
2021/09/22 01:13:58;;;;;;;3.33;1.07;;;;;;;7.73;72.30;100107.48;1681936;85;20972;-68
2021/09/22 01:16:27;;;;;;;1.90;1.05;;;;;;;7.71;72.29;100108.05;1677231;85;21024;-68
2021/09/22 01:18:53;;;;;;;1.52;1.00;;;;;;;7.69;72.26;100107.32;1681237;85;21685;-68
2021/09/22 01:21:20;;;;;;;1.32;0.98;;;;;;;7.70;72.22;100107.20;1669846;85;21026;-68
2021/09/22 01:23:50;;;;;;;1.55;0.90;;;;;;;7.67;72.19;100102.66;1665437;85;22089;-68
2021/09/22 01:26:18;;;;;;;2.15;1.00;;;;;;;7.67;72.24;100103.97;1671990;85;21000;-68
2021/09/22 01:28:44;;;;;;;5.37;0.90;;;;;;;7.66;72.21;100105.76;1671062;85;20993;-68
2021/09/22 01:31:12;;;;;;;1.10;0.82;;;;;;;7.65;72.23;100099.30;1685984;85;20964;-68
2021/09/22 01:33:39;;;;;;;1.00;0.80;;;;;;;7.66;72.27;100098.34;1684808;84;20920;-68
2021/09/22 01:36:14;;;;;;;1.70;0.80;;;;;;;7.66;72.30;100095.72;1684228;85;22201;-68
2021/09/22 01:38:44;;;;;;;1.55;0.98;;;;;;;7.63;72.36;100100.73;1688373;84;21066;-68
2021/09/22 01:41:15;;;;;;;2.33;1.10;;;;;;;7.60;72.45;100099.61;1687081;85;21004;-68
2021/09/22 01:43:49;;;;;;;2.45;0.90;;;;;;;7.59;72.57;100093.16;1682094;85;21094;-68
2021/09/22 01:46:17;;;;;;;1.57;0.80;;;;;;;7.57;72.69;100090.64;1640009;85;21023;-68
2021/09/22 01:48:45;;;;;;;2.00;1.10;;;;;;;7.56;72.70;100092.91;1683870;85;22232;-68
2021/09/22 01:51:12;;;;;;;1.57;0.90;;;;;;;7.57;72.80;100094.59;1681232;85;20954;-68
2021/09/22 01:53:42;;;;;;;1.67;1.12;;;;;;;7.56;72.84;100104.73;1684771;84;21017;-67
2021/09/22 01:56:09;;;;;;;2.00;1.00;;;;;;;7.54;72.88;100101.38;1685569;85;21038;-68
2021/09/22 01:58:37;;;;;;;2.45;1.20;;;;;;;7.52;72.95;100086.65;1688438;85;21039;-67
2021/09/22 02:01:09;;;;;;;1.77;1.20;;;;;;;7.54;73.03;100092.66;1687680;85;22890;-67
2021/09/22 02:03:40;;;;;;;1.70;1.10;;;;;;;7.56;73.08;100093.39;1682986;85;21361;-67
2021/09/22 02:06:09;;;;;;;2.02;1.20;;;;;;;7.56;73.11;100090.76;1670851;84;21531;-68
2021/09/22 02:08:39;;;;;;;2.00;1.10;;;;;;;7.56;73.17;100085.02;1656976;85;21099;-67
2021/09/22 02:11:07;;;;;;;1.32;1.00;;;;;;;7.57;73.16;100089.33;1681517;85;21084;-67
2021/09/22 02:13:35;;;;;;;2.15;1.07;;;;;;;7.58;73.23;100091.01;1683272;85;21845;-68
2021/09/22 02:16:03;;;;;;;1.85;1.32;;;;;;;7.60;73.24;100092.20;1679175;85;21403;-69
2021/09/22 02:18:32;;;;;;;1.32;1.10;;;;;;;7.60;73.16;100089.58;1679355;85;21045;-67
2021/09/22 02:20:58;;;;;;;1.30;1.10;;;;;;;7.58;73.21;100087.06;1683226;84;21065;-67
2021/09/22 02:23:27;;;;;;;1.20;1.00;;;;;;;7.60;73.21;100094.83;1683523;84;21050;-68
2021/09/22 02:25:55;;;;;;;1.52;1.07;;;;;;;7.60;73.13;100092.20;1682615;84;22741;-68
2021/09/22 02:28:24;;;;;;;1.85;1.20;;;;;;;7.61;73.20;100099.14;1681394;85;21063;-68
2021/09/22 02:30:50;;;;;;;3.15;1.40;;;;;;;7.60;73.04;100095.67;1671392;85;21028;-67
2021/09/22 02:33:17;;;;;;;1.70;1.40;;;;;;;7.57;72.99;100097.22;1682590;84;21048;-68
2021/09/22 02:35:44;;;;;;;1.75;1.15;;;;;;;7.58;73.02;100094.95;1659948;85;20960;-68
2021/09/22 02:38:13;;;;;;;1.90;1.22;;;;;;;7.57;72.92;100087.17;1683296;82;22262;-67
2021/09/22 02:40:42;;;;;;;1.35;1.10;;;;;;;7.56;72.86;100092.91;1682659;84;20933;-68
2021/09/22 02:43:10;;;;;;;2.30;1.52;;;;;;;7.56;72.80;100091.59;1683726;85;21005;-67
2021/09/22 02:45:36;;;;;;;2.10;1.30;;;;;;;7.55;72.79;100083.35;1682869;85;21009;-68
2021/09/22 02:48:04;;;;;;;2.60;1.40;;;;;;;7.56;72.75;100092.07;1681513;85;21428;-68
2021/09/22 02:50:33;;;;;;;1.20;1.10;;;;;;;7.55;72.70;100087.30;1681009;85;20930;-67
2021/09/22 02:53:00;;;;;;;2.72;1.30;;;;;;;7.55;72.73;100083.35;1682270;85;20992;-68
2021/09/22 02:55:28;;;;;;;2.45;1.17;;;;;;;7.57;72.73;100084.55;1683887;83;21407;-68
2021/09/22 02:57:55;;;;;;;2.45;1.20;;;;;;;7.56;72.72;100089.44;1685118;85;21239;-67
2021/09/22 03:00:23;;;;;;;2.42;1.32;;;;;;;7.52;72.67;100086.65;1683986;85;20969;-70
2021/09/22 03:02:51;;;;;;;1.90;1.20;;;;;;;7.51;72.71;100086.29;1672630;85;21819;-67
2021/09/22 03:05:18;;;;;;;2.60;1.40;;;;;;;7.50;72.81;100103.84;1682865;85;21009;-67
2021/09/22 03:07:44;;;;;;;3.98;1.57;;;;;;;7.50;72.73;100089.88;1684797;84;20945;-68
2021/09/22 03:10:11;;;;;;;2.40;1.37;;;;;;;7.51;72.80;100088.92;1662895;85;21444;-68
2021/09/22 03:12:37;;;;;;;2.80;1.60;;;;;;;7.49;72.86;100093.45;1681806;85;21084;-67
2021/09/22 03:15:05;;;;;;;1.65;1.52;;;;;;;7.48;72.84;100093.09;1682699;84;22238;-68
2021/09/22 03:17:31;;;;;;;1.65;1.40;;;;;;;7.44;72.85;100091.16;1683648;85;21001;-68
2021/09/22 03:19:59;;;;;;;1.60;1.45;;;;;;;7.43;72.92;100090.33;1681316;85;21444;-68
2021/09/22 03:22:25;;;;;;;1.77;1.32;;;;;;;7.45;73.02;100094.16;1672802;84;21443;-68
2021/09/22 03:24:59;;;;;;;1.60;1.30;;;;;;;7.45;73.03;100094.99;1675653;85;21566;-68
2021/09/22 03:27:26;;;;;;;1.42;1.20;;;;;;;7.48;73.00;100097.03;1685264;85;21721;-68
2021/09/22 03:29:52;;;;;;;1.40;1.10;;;;;;;7.48;72.95;100091.77;1682906;84;21487;-67
2021/09/22 03:32:19;;;;;;;2.67;1.30;;;;;;;7.49;72.98;100089.51;1682769;85;21053;-67
2021/09/22 03:34:46;;;;;;;2.17;1.62;;;;;;;7.49;72.92;100095.60;1686028;85;20949;-68
2021/09/22 03:37:15;;;;;;;1.50;1.40;;;;;;;7.49;72.86;100093.45;1673245;85;21457;-68
2021/09/22 03:39:42;;;;;;;2.05;1.50;;;;;;;7.49;72.86;100097.39;1669498;85;21833;-68
2021/09/22 03:42:09;;;;;;;1.72;1.30;;;;;;;7.45;72.79;100091.05;1684367;84;21091;-69
2021/09/22 03:44:35;;;;;;;3.60;1.37;;;;;;;7.43;72.75;100087.70;1679487;85;20953;-68
2021/09/22 03:47:02;;;;;;;2.72;1.60;;;;;;;7.44;72.82;100092.48;1683644;85;21059;-67
2021/09/22 03:49:31;;;;;;;1.85;1.30;;;;;;;7.45;72.76;100091.05;1681737;84;21073;-68
2021/09/22 03:52:00;;;;;;;1.82;1.47;;;;;;;7.46;72.74;100092.73;1683524;84;21737;-67
2021/09/22 03:54:27;;;;;;;2.45;1.52;;;;;;;7.50;72.74;100092.50;1684431;85;21095;-67
2021/09/22 03:56:56;;;;;;;1.35;1.02;;;;;;;7.49;72.61;100092.98;1684445;85;20944;-67
2021/09/22 03:59:23;;;;;;;1.40;1.20;;;;;;;7.49;72.64;100087.72;1682231;84;20981;-67
2021/09/22 04:01:49;;;;;;;1.95;1.20;;;;;;;7.49;72.62;100084.25;1668924;85;21032;-67
2021/09/22 04:04:16;;;;;;;1.20;1.10;;;;;;;7.50;72.61;100089.88;1681985;84;22836;-68
2021/09/22 04:06:43;;;;;;;1.40;1.22;;;;;;;7.50;72.57;100085.92;1683489;84;21024;-67
2021/09/22 04:09:14;;;;;;;1.10;1.00;;;;;;;7.54;72.60;100083.47;1683582;85;21023;-67
2021/09/22 04:11:41;;;;;;;1.67;1.20;;;;;;;7.55;72.53;100080.72;1683462;84;21001;-67
2021/09/22 04:14:08;;;;;;;1.47;1.30;;;;;;;7.56;72.47;100080.25;1681341;84;21062;-67
2021/09/22 04:16:36;;;;;;;1.95;1.15;;;;;;;7.54;72.27;100078.20;1682153;85;21403;-67
2021/09/22 04:19:04;;;;;;;1.40;1.30;;;;;;;7.54;72.35;100069.84;1682500;85;20968;-67
2021/09/22 04:21:33;;;;;;;1.35;1.10;;;;;;;7.58;72.33;100073.08;1682105;84;21140;-67
2021/09/22 04:24:01;;;;;;;1.82;1.12;;;;;;;7.60;72.29;100079.91;1684601;85;21056;-67
2021/09/22 04:26:28;;;;;;;1.50;1.27;;;;;;;7.62;72.23;100078.47;1681083;85;21020;-67
2021/09/22 04:28:56;;;;;;;1.85;1.40;;;;;;;7.61;72.08;100072.85;1680140;85;22264;-68
2021/09/22 04:31:42;;;;;;;1.47;1.20;;;;;;;7.61;72.05;100078.11;1682159;85;21025;-67
2021/09/22 04:34:17;;;;;;;2.05;1.60;;;;;;;7.60;72.00;100075.13;1656164;85;21464;-68
2021/09/22 04:37:01;;;;;;;2.10;1.42;;;;;;;7.56;71.92;100080.25;1680839;85;21065;-67
2021/09/22 04:39:47;;;;;;;1.92;1.40;;;;;;;7.50;72.06;100076.25;1669612;85;21050;-67
2021/09/22 04:42:32;;;;;;;1.70;1.30;;;;;;;7.46;72.23;100073.50;1658423;85;21479;-67
2021/09/22 04:45:17;;;;;;;3.08;1.42;;;;;;;7.49;72.34;100073.73;1684265;85;21077;-67
2021/09/22 04:48:02;;;;;;;1.95;1.40;;;;;;;7.52;72.30;100076.14;1680745;83;20958;-68
2021/09/22 04:50:47;;;;;;;1.35;1.15;;;;;;;7.52;72.20;100073.52;1684549;85;21027;-68
2021/09/22 04:53:33;;;;;;;1.30;1.20;;;;;;;7.55;72.14;100072.00;1673850;84;21071;-68
2021/09/22 04:56:18;;;;;;;2.80;1.30;;;;;;;7.55;72.04;100074.63;1677543;85;21865;-68
2021/09/22 04:59:03;;;;;;;1.90;1.35;;;;;;;7.56;72.04;100075.83;1676415;85;21084;-68
2021/09/22 05:01:49;;;;;;;1.75;1.40;;;;;;;7.59;71.96;100074.77;1675067;85;21112;-69
2021/09/22 05:04:34;;;;;;;2.00;1.32;;;;;;;7.60;71.90;100076.44;1681639;85;21062;-69
2021/09/22 05:07:21;;;;;;;2.45;1.30;;;;;;;7.59;71.49;100072.97;1678536;84;21512;-70
2021/09/22 05:10:05;;;;;;;1.25;0.98;;;;;;;7.60;71.55;100076.44;1648106;87;22851;-69
2021/09/22 05:12:50;;;;;;;2.10;1.45;;;;;;;7.60;71.44;100076.44;1665709;85;21035;-70
2021/09/22 05:15:35;;;;;;;1.60;1.42;;;;;;;7.64;71.43;100073.97;1677688;84;21029;-69
2021/09/22 05:18:19;;;;;;;2.02;1.50;;;;;;;7.66;71.26;100078.63;1676162;84;21083;-69
2021/09/22 05:21:06;;;;;;;4.08;1.50;;;;;;;7.71;71.18;100072.55;1675768;85;20993;-69
2021/09/22 05:23:52;;;;;;;3.40;1.90;;;;;;;7.75;70.98;100077.50;1677326;84;21530;-69
2021/09/22 05:26:39;;;;;;;2.00;1.80;;;;;;;7.81;70.82;100081.45;1670938;85;21669;-67
2021/09/22 05:29:26;;;;;;;2.35;1.98;;;;;;;7.87;70.71;100079.70;1675013;85;21012;-68
2021/09/22 05:32:12;;;;;;;1.85;1.60;;;;;;;7.93;70.51;100077.95;1672957;85;21086;-68
2021/09/22 05:34:58;;;;;;;1.87;1.52;;;;;;;7.95;70.09;100076.52;1672433;85;21056;-68
2021/09/22 05:37:43;;;;;;;2.33;1.80;;;;;;;7.96;69.77;100080.83;1665233;85;21870;-70
2021/09/22 05:40:20;;;;;;;2.85;1.57;;;;;;;7.96;69.76;100078.20;1604263;88;21093;-68
2021/09/22 05:43:06;;;;;;;3.65;1.40;;;;;;;7.98;69.97;100082.38;1678241;85;21057;-68
2021/09/22 05:45:51;;;;;;;2.83;1.40;;;;;;;8.02;69.59;100083.86;1670591;84;21499;-70
2021/09/22 05:48:38;;;;;;;1.70;1.40;;;;;;;8.04;69.53;100078.00;1662478;85;21072;-69
2021/09/22 05:51:23;;;;;;;1.52;1.40;;;;;;;8.05;69.38;100078.84;1610485;88;22879;-69
2021/09/22 05:54:09;;;;;;;1.47;1.32;;;;;;;8.08;69.52;100084.34;1619282;87;21061;-69
2021/09/22 05:56:55;;;;;;;1.60;1.37;;;;;;;8.14;69.64;100079.95;1611096;88;21099;-68
2021/09/22 05:59:35;;;;;;;3.02;1.72;;;;;;;8.23;69.57;100080.59;1590041;88;21105;-68
2021/09/22 06:02:19;;;;;;;3.62;1.80;;;;;;;8.27;69.21;100080.71;1609552;88;21149;-68
2021/09/22 06:05:07;;;;;;;3.00;1.62;;;;;;;8.32;69.22;100081.22;1613679;87;21575;-70
2021/09/22 06:07:53;;;;;;;2.25;1.90;;;;;;;8.41;69.29;100084.52;1604920;88;21109;-71
2021/09/22 06:10:38;;;;;;;2.52;1.32;;;;;;;8.44;68.52;100077.70;1700775;83;21060;-72
2021/09/22 06:13:07;;;;;;;1.98;1.40;;;;;;;8.38;68.34;100079.46;1686083;83;21044;-71
2021/09/22 06:15:34;;;;;;;3.45;1.57;;;;;;;8.36;68.34;100086.64;1684520;84;21041;-71
2021/09/22 06:18:02;;;;;;;2.95;1.98;;;;;;;8.32;68.36;100085.17;1684396;85;22832;-72
2021/09/22 06:20:29;;;;;;;2.90;1.67;;;;;;;8.32;68.47;100084.69;1685037;85;21127;-70
2021/09/22 06:22:55;;;;;;;3.00;1.92;;;;;;;8.31;68.49;100082.18;1683599;84;21329;-72
2021/09/22 06:25:23;;;;;;;2.67;1.90;;;;;;;8.31;68.49;100081.70;1683196;84;21035;-71
2021/09/22 06:27:50;;;;;;;2.40;1.85;;;;;;;8.29;68.67;100087.53;1671154;85;22177;-69
2021/09/22 06:30:16;;;;;;;2.00;1.80;;;;;;;8.28;68.47;100084.53;1684686;85;21817;-70
2021/09/22 06:32:43;;;;;;;2.87;2.05;;;;;;;8.27;68.47;100089.92;1684931;84;21012;-68
2021/09/22 06:35:28;;;;;;;3.22;2.20;;;;;;;8.24;68.38;100083.10;1684990;85;21029;-67
2021/09/22 06:37:58;;;;;;;2.62;2.05;;;;;;;8.27;68.50;100083.34;1684086;84;21498;-71
2021/09/22 06:40:26;;;;;;;1.60;1.50;;;;;;;8.31;68.47;100091.39;1682915;84;21020;-70
2021/09/22 06:42:54;;;;;;;2.50;1.75;;;;;;;8.37;68.37;100088.31;1684356;84;21815;-68
2021/09/22 06:45:23;;;;;;;1.92;1.30;;;;;;;8.39;68.02;100089.51;1680709;84;21088;-70
2021/09/22 06:47:51;;;;;;;1.72;1.40;;;;;;;8.38;67.86;100091.78;1717172;82;21015;-68
2021/09/22 06:50:18;;;;;;;1.50;1.30;;;;;;;8.40;67.82;100094.69;1657525;86;21078;-68
2021/09/22 06:52:44;;;;;;;1.85;1.40;;;;;;;8.43;67.78;100097.08;1671508;85;20969;-69
2021/09/22 06:55:11;;;;;;;2.05;1.50;;;;;;;8.44;67.43;100100.06;1681045;85;21838;-68
2021/09/22 06:57:38;;;;;;;2.65;1.77;;;;;;;8.46;67.36;100102.09;1685114;85;21106;-70
2021/09/22 07:00:09;;;;;;;2.47;1.77;;;;;;;8.46;67.22;100099.95;1684315;85;20961;-67
2021/09/22 07:02:34;;;;;;;2.58;1.95;;;;;;;8.47;67.19;100103.77;1681399;85;21083;-69
2021/09/22 07:05:01;;;;;;;2.55;2.10;;;;;;;8.47;67.07;100105.09;1681237;85;20971;-68
2021/09/22 07:07:28;;;;;;;2.90;1.90;;;;;;;8.44;66.85;100096.59;1683133;84;22182;-69
2021/09/22 07:09:54;;;;;;;3.77;2.40;;;;;;;8.46;67.07;100098.16;1676514;85;21422;-68
2021/09/22 07:12:22;;;;;;;2.98;2.15;;;;;;;8.52;66.92;100090.28;1675647;85;20954;-68
2021/09/22 07:14:49;;;;;;;3.47;2.80;;;;;;;8.55;66.99;100096.62;1679963;85;21088;-68
2021/09/22 07:17:18;;;;;;;5.00;3.15;;;;;;;8.57;66.90;100096.86;1678260;84;20978;-69
2021/09/22 07:19:46;;;;;;;3.67;3.08;;;;;;;8.61;66.86;100096.17;1652805;85;22667;-68
2021/09/22 07:22:14;;;;;;;4.20;3.37;;;;;;;8.64;66.67;100098.56;1615079;88;21022;-69
2021/09/22 07:24:42;;;;;;;5.25;3.90;;;;;;;8.69;66.74;100099.55;1626773;88;21183;-68
2021/09/22 07:27:08;;;;;;;4.40;4.00;;;;;;;8.77;66.71;100101.94;1650961;85;21021;-68
2021/09/22 07:29:35;;;;;;;5.25;4.30;;;;;;;8.77;66.37;100099.78;1677904;84;20969;-68
2021/09/22 07:32:02;;;;;;;5.75;3.98;;;;;;;8.76;66.13;100098.10;1678410;85;21855;-68
2021/09/22 07:34:29;;;;;;;4.50;4.10;;;;;;;8.74;66.04;100096.91;1652295;85;20925;-67
2021/09/22 07:36:56;;;;;;;4.58;3.75;;;;;;;8.74;66.17;100093.44;1677012;85;21005;-67
2021/09/22 07:39:23;;;;;;;5.62;4.22;;;;;;;8.78;66.40;100094.87;1665574;85;20984;-66
2021/09/22 07:41:50;;;;;;;5.58;4.40;;;;;;;8.82;66.23;100098.97;1678016;85;21099;-68
2021/09/22 07:44:16;;;;;;;4.83;4.20;;;;;;;8.81;66.26;100090.70;1679283;85;21855;-69
2021/09/22 07:46:44;;;;;;;5.65;5.12;;;;;;;8.81;66.38;100104.71;1669490;85;21373;-68
2021/09/22 07:49:11;;;;;;;5.15;4.65;;;;;;;8.79;66.23;100105.80;1659661;85;21013;-69
2021/09/22 07:51:37;;;;;;;4.67;3.95;;;;;;;8.78;66.22;100102.77;1677851;85;20974;-68
2021/09/22 07:54:03;;;;;;;5.62;3.95;;;;;;;8.80;65.72;100102.20;1679855;85;21416;-69
2021/09/22 07:56:31;;;;;;;4.85;4.30;;;;;;;8.72;65.57;100104.58;1680048;85;21777;-69
2021/09/22 07:58:58;;;;;;;4.78;4.10;;;;;;;8.71;65.60;100104.22;1680731;85;21028;-70
2021/09/22 08:01:25;;;;;;;4.60;3.92;;;;;;;8.74;65.88;100107.92;1673824;84;21006;-69
2021/09/22 08:03:51;;;;;;;5.80;5.20;;;;;;;8.79;65.77;100103.16;1679534;84;21051;-71
2021/09/22 08:06:18;;;;;;;5.60;5.10;;;;;;;8.83;65.77;100101.95;1680473;85;21048;-70
2021/09/22 08:08:46;;;;;;;5.37;4.40;;;;;;;8.89;65.64;100106.28;1682711;84;21813;-69
2021/09/22 08:11:12;;;;;;;4.80;4.30;;;;;;;8.88;65.32;100105.93;1682828;85;21005;-70
2021/09/22 08:13:39;;;;;;;5.95;5.35;;;;;;;8.84;65.47;100107.10;1672843;85;21019;-69
2021/09/22 08:16:06;;;;;;;6.75;4.90;;;;;;;8.84;65.31;100101.00;1683047;84;22478;-70
2021/09/22 08:18:33;;;;;;;6.40;4.78;;;;;;;8.86;65.52;100106.98;1685791;85;20964;-68
2021/09/22 08:20:59;;;;;;;5.42;4.35;;;;;;;8.88;65.31;100103.77;1681135;84;22462;-70
2021/09/22 08:23:26;;;;;;;5.92;4.92;;;;;;;8.84;65.08;100101.00;1685651;85;20964;-68
2021/09/22 08:25:52;;;;;;;4.70;4.30;;;;;;;8.80;65.19;100104.83;1686126;85;20952;-70
2021/09/22 08:28:19;;;;;;;7.12;5.37;;;;;;;8.80;65.46;100099.09;1686214;84;21475;-70
2021/09/22 08:30:45;;;;;;;5.83;5.22;;;;;;;8.80;65.47;100100.41;1682444;84;21372;-69
2021/09/22 08:33:12;;;;;;;5.25;4.53;;;;;;;8.76;65.56;100104.20;1681450;85;22753;-70
2021/09/22 08:35:38;;;;;;;7.55;6.08;;;;;;;8.72;65.55;100101.94;1684509;84;21413;-68
2021/09/22 08:38:04;;;;;;;10.45;6.30;;;;;;;8.67;65.43;100093.53;1684309;85;20961;-68
2021/09/22 08:40:31;;;;;;;5.50;5.00;;;;;;;8.60;65.69;100104.55;1686439;83;21009;-68
2021/09/22 08:42:58;;;;;;;4.72;3.80;;;;;;;8.59;65.78;100098.92;1685782;84;21004;-69
2021/09/22 08:45:25;;;;;;;3.90;3.50;;;;;;;8.65;65.54;100096.77;1682449;84;21791;-69
2021/09/22 08:47:51;;;;;;;4.45;4.00;;;;;;;8.73;65.62;100099.66;1681215;84;21044;-69
2021/09/22 08:50:20;;;;;;;4.85;4.05;;;;;;;8.82;65.61;100100.28;1681805;85;21060;-69
2021/09/22 08:52:49;;;;;;;4.97;3.83;;;;;;;8.91;65.45;100093.48;1681341;85;21079;-71
2021/09/22 08:55:17;;;;;;;5.85;4.60;;;;;;;8.99;65.12;100089.77;1681260;83;20953;-69
2021/09/22 08:57:44;;;;;;;6.00;4.00;;;;;;;9.02;64.87;100089.05;1681890;85;22155;-68
2021/09/22 09:00:12;;;;;;;5.40;4.17;;;;;;;9.10;64.85;100091.93;1685497;85;21023;-68
2021/09/22 09:02:41;;;;;;;4.90;3.55;;;;;;;9.18;64.53;100082.95;1683381;85;21086;-68
2021/09/22 09:05:11;;;;;;;6.50;4.53;;;;;;;9.29;64.31;100080.80;1682674;84;21033;-68
2021/09/22 09:07:59;;;;;;;5.40;4.90;;;;;;;9.36;63.52;100071.45;1682509;84;21051;-69
2021/09/22 09:10:29;;;;;;;6.42;5.08;;;;;;;9.43;63.33;100075.73;1676721;85;21846;-68
2021/09/22 09:13:06;;;;;;;6.80;6.20;;;;;;;9.46;63.41;100068.44;1679881;84;21586;-69
2021/09/22 09:15:45;;;;;;;6.55;5.95;;;;;;;9.50;62.84;100076.94;1677489;85;21032;-70
2021/09/22 09:18:21;;;;;;;7.80;6.72;;;;;;;9.52;62.87;100070.21;1678944;84;20992;-68
2021/09/22 09:20:49;;;;;;;7.00;6.30;;;;;;;9.60;62.80;100073.92;1650934;85;20976;-69
2021/09/22 09:23:19;;;;;;;7.00;6.30;;;;;;;9.66;62.71;100074.76;1628270;85;21831;-70
2021/09/22 09:26:03;;;;;;;6.80;6.12;;;;;;;9.75;62.93;100070.06;1637305;85;20987;-72
2021/09/22 09:28:37;;;;;;;8.63;7.83;;;;;;;9.88;62.53;100071.70;1609548;88;21084;-70
2021/09/22 09:31:10;;;;;;;11.03;10.03;;;;;;;9.95;62.23;100081.63;1617216;88;20986;-70
2021/09/22 09:33:52;;;;;;;10.08;9.18;;;;;;;9.96;61.49;100077.19;1659188;85;21128;-69
2021/09/22 09:36:42;;;;;;;9.17;8.27;;;;;;;9.99;61.59;100080.89;1610606;88;21858;-71
2021/09/22 09:39:11;;;;;;;6.17;5.67;;;;;;;10.04;61.43;100069.01;1675024;85;20962;-67
2021/09/22 09:41:49;;;;;;;6.12;5.50;;;;;;;10.14;61.14;100070.89;1678468;85;20957;-69
2021/09/22 09:44:25;;;;;;;5.35;4.70;;;;;;;10.17;60.88;100066.19;1664462;85;20969;-68
2021/09/22 09:46:57;;;;;;;4.60;4.20;;;;;;;10.22;60.17;100077.22;1680830;84;21001;-68
2021/09/22 09:49:28;;;;;;;3.87;3.47;;;;;;;10.21;59.75;100076.83;1679205;85;21766;-68
2021/09/22 09:51:56;;;;;;;3.80;3.50;;;;;;;10.18;59.87;100070.98;1680777;85;21391;-67
2021/09/22 09:54:27;;;;;;;4.20;3.80;;;;;;;10.16;59.80;100076.39;1679573;85;20941;-68
2021/09/22 09:56:56;;;;;;;3.50;3.20;;;;;;;10.17;59.83;100066.67;1655532;85;20972;-66
2021/09/22 09:59:25;;;;;;;4.65;3.35;;;;;;;10.14;59.58;100066.94;1676043;85;20961;-67
2021/09/22 10:01:54;;;;;;;4.50;3.15;;;;;;;10.09;59.97;100067.30;1653305;85;21735;-67
2021/09/22 10:04:23;;;;;;;3.40;3.10;;;;;;;10.08;60.10;100068.27;1672903;85;21066;-68
2021/09/22 10:06:52;;;;;;;2.67;2.47;;;;;;;10.09;60.51;100071.73;1672639;85;21018;-68
2021/09/22 10:09:18;;;;;;;2.45;2.22;;;;;;;10.11;60.36;100068.00;1678123;83;21087;-68
2021/09/22 10:11:47;;;;;;;3.40;2.58;;;;;;;10.07;60.04;100069.71;1682144;82;20954;-69
2021/09/22 10:14:15;;;;;;;4.05;3.52;;;;;;;10.06;59.93;100069.36;1680434;85;22264;-68
2021/09/22 10:16:42;;;;;;;4.00;3.60;;;;;;;10.04;59.89;100066.86;1680511;85;21480;-68
2021/09/22 10:19:09;;;;;;;5.83;3.52;;;;;;;10.06;60.18;100063.60;1680298;85;21017;-68
2021/09/22 10:21:37;;;;;;;4.83;4.33;;;;;;;10.11;60.17;100060.09;1683108;85;21027;-68
2021/09/22 10:24:10;;;;;;;3.00;2.70;;;;;;;10.20;60.13;100060.64;1686131;83;21421;-68
2021/09/22 10:26:39;;;;;;;2.98;2.60;;;;;;;10.26;59.08;100052.75;1681626;85;21519;-68
2021/09/22 10:29:28;;;;;;;2.85;2.45;;;;;;;10.17;58.75;100056.95;1684482;85;20861;-67
2021/09/22 10:31:57;;;;;;;3.00;2.17;;;;;;;10.16;59.36;100055.77;1684099;82;21016;-67
2021/09/22 10:34:33;;;;;;;2.02;1.82;;;;;;;10.15;59.37;100058.89;1685894;84;20973;-67
2021/09/22 10:37:03;;;;;;;4.45;2.10;;;;;;;10.09;59.41;100056.74;1686199;84;21012;-67
2021/09/22 10:39:42;;;;;;;1.90;1.67;;;;;;;10.04;59.77;100060.26;1686345;84;21934;-67
2021/09/22 10:42:30;;;;;;;1.95;1.60;;;;;;;10.02;59.86;100055.56;1686333;85;20985;-66
2021/09/22 10:45:21;;;;;;;2.00;1.80;;;;;;;10.04;59.87;100069.01;1686757;85;21266;-66
2021/09/22 10:47:48;;;;;;;2.42;2.02;;;;;;;10.01;59.91;100076.31;1686011;85;21450;-66
2021/09/22 10:50:44;;;;;;;4.15;2.40;;;;;;;9.94;59.59;100068.54;1686143;85;20960;-66
2021/09/22 10:53:35;;;;;;;3.47;2.40;;;;;;;9.86;59.82;100069.67;1658346;85;20964;-66
2021/09/22 10:56:22;;;;;;;3.35;2.90;;;;;;;9.75;60.25;100067.91;1647064;85;21055;-67
2021/09/22 10:58:57;;;;;;;3.17;2.85;;;;;;;9.68;60.43;100066.72;1659127;85;20976;-67
2021/09/22 11:01:44;;;;;;;4.22;3.60;;;;;;;9.61;60.71;100066.36;1682816;84;21005;-67
2021/09/22 11:04:11;;;;;;;3.72;2.98;;;;;;;9.60;60.95;100063.38;1680961;84;21065;-68
2021/09/22 11:06:50;;;;;;;4.42;3.30;;;;;;;9.61;60.90;100065.52;1684625;85;21814;-68
2021/09/22 11:09:26;;;;;;;3.35;3.05;;;;;;;9.62;60.85;100065.88;1695698;84;20957;-67
2021/09/22 11:12:03;;;;;;;3.08;2.77;;;;;;;9.63;61.18;100067.06;1706071;84;21399;-67
2021/09/22 11:14:42;;;;;;;2.55;2.35;;;;;;;9.69;61.13;100060.48;1705763;84;38724;-66
2021/09/22 11:17:15;;;;;;;2.83;2.10;;;;;;;9.79;60.72;100068.48;1705951;83;21073;-66
2021/09/22 11:19:51;;;;;;;2.22;1.70;;;;;;;9.82;60.37;100060.31;1702436;84;27927;-67
2021/09/22 11:22:26;;;;;;;2.00;1.87;;;;;;;9.95;60.62;100059.20;1703443;82;21033;-66
2021/09/22 11:24:55;;;;;;;2.30;1.70;;;;;;;10.09;60.44;100052.78;1718445;82;20965;-66
2021/09/22 11:27:24;;;;;;;2.45;2.00;;;;;;;10.21;59.98;100051.77;1680373;84;20965;-66
2021/09/22 11:29:59;;;;;;;2.77;2.37;;;;;;;10.28;59.60;100056.92;1706151;84;21016;-67
2021/09/22 11:32:36;;;;;;;2.20;1.80;;;;;;;10.33;58.73;100053.92;1706032;84;21850;-67
2021/09/22 11:35:12;;;;;;;16.00;11.28;;;;;;;10.26;58.64;100053.58;1679470;84;21017;-67
2021/09/22 11:37:44;;;;;;;3.42;2.83;;;;;;;10.22;58.80;100042.07;1706146;83;21001;-67
2021/09/22 11:40:32;;;;;;;2.50;2.22;;;;;;;10.18;59.11;100041.95;1706472;84;21017;-67
2021/09/22 11:43:10;;;;;;;3.92;1.82;;;;;;;10.15;58.95;100043.53;1706182;84;21116;-67
2021/09/22 11:45:54;;;;;;;2.12;1.80;;;;;;;10.07;59.22;100043.33;1705887;84;21041;-67
2021/09/22 11:48:34;;;;;;;3.42;2.52;;;;;;;10.03;59.36;100042.72;1706095;84;21005;-67
2021/09/22 11:51:07;;;;;;;3.50;3.20;;;;;;;9.97;59.38;100041.92;1706216;84;21001;-67